createdAt,value
2023-10-21T00:01:42.885Z,97855.89
2023-10-21T00:04:10.070Z,97859.42
2023-10-21T00:06:37.173Z,97862.64
2023-10-21T00:09:04.284Z,97865.36
2023-10-21T00:11:31.859Z,97871.73
2023-10-21T00:13:58.856Z,97871.16
2023-10-21T00:16:26.009Z,97860.56
2023-10-21T00:18:53.213Z,97853.84
2023-10-21T00:21:20.206Z,97843.71
2023-10-21T00:23:47.333Z,97833.46
2023-10-21T00:26:17.403Z,97843.06
2023-10-21T00:28:44.399Z,97847.88
2023-10-21T00:31:11.469Z,97844.55
2023-10-21T00:33:38.500Z,97850.35
2023-10-21T00:36:05.867Z,97850.39
2023-10-21T00:38:33.354Z,97849.55
2023-10-21T00:41:00.349Z,97854.52
2023-10-21T00:43:42.807Z,97860.44
2023-10-21T00:46:18.015Z,97851.52
2023-10-21T00:48:46.781Z,97861.85
2023-10-21T00:51:15.779Z,97885.17
2023-10-21T00:54:05.277Z,97892.38
2023-10-21T00:56:33.829Z,97886.40
2023-10-21T00:59:02.655Z,97898.27
2023-10-21T01:01:31.122Z,97911.13
2023-10-21T01:03:59.730Z,97915.48
2023-10-21T01:06:31.034Z,97915.38
2023-10-21T01:09:00.842Z,97916.09
2023-10-21T01:11:29.338Z,97919.58
2023-10-21T01:13:57.807Z,97917.85
2023-10-21T01:16:26.328Z,97932.00
2023-10-21T01:18:54.736Z,97935.52
2023-10-21T01:21:23.209Z,97932.73
2023-10-21T01:23:51.984Z,97937.99
2023-10-21T01:26:20.346Z,97945.39
2023-10-21T01:28:48.822Z,97952.77
2023-10-21T01:31:17.302Z,97960.98
2023-10-21T01:33:46.026Z,97967.13
2023-10-21T01:36:14.638Z,97968.66
2023-10-21T01:38:43.076Z,97969.74
2023-10-21T01:41:11.770Z,97969.89
2023-10-21T01:43:41.330Z,97965.23
2023-10-21T01:46:09.877Z,97957.16
2023-10-21T01:48:38.260Z,97966.27
2023-10-21T01:51:06.764Z,97975.17
2023-10-21T01:53:35.535Z,97972.23
2023-10-21T01:56:04.864Z,97975.08
2023-10-21T01:58:33.527Z,97981.70
2023-10-21T02:01:09.385Z,97986.48
2023-10-21T02:03:39.012Z,97987.64
2023-10-21T02:06:08.753Z,97984.90
2023-10-21T02:08:37.348Z,97980.55
2023-10-21T02:11:05.673Z,97977.10
2023-10-21T02:13:34.021Z,97984.86
2023-10-21T02:16:02.715Z,97988.36
2023-10-21T02:18:31.336Z,97999.62
2023-10-21T02:20:59.842Z,98009.83
2023-10-21T02:23:28.360Z,98015.83
2023-10-21T02:26:03.028Z,98022.58
2023-10-21T02:28:31.969Z,98028.41
2023-10-21T02:31:04.684Z,98028.96
2023-10-21T02:33:33.410Z,98018.70
2023-10-21T02:36:02.476Z,98008.80
2023-10-21T02:38:31.703Z,98017.09
2023-10-21T02:41:00.295Z,98018.77
2023-10-21T02:43:28.655Z,98018.64
2023-10-21T02:45:57.202Z,98019.98
2023-10-21T02:48:25.805Z,98024.70
2023-10-21T02:50:54.744Z,98023.89
2023-10-21T02:53:23.148Z,98022.95
2023-10-21T02:55:51.881Z,98025.08
2023-10-21T02:58:21.485Z,98023.98
2023-10-21T03:00:49.944Z,98019.98
2023-10-21T03:03:18.535Z,98023.43
2023-10-21T03:05:47.060Z,98026.60
2023-10-21T03:08:15.758Z,98031.64
2023-10-21T03:10:44.302Z,98041.18
2023-10-21T03:13:12.729Z,98046.33
2023-10-21T03:15:41.252Z,98055.17
2023-10-21T03:18:09.791Z,98058.86
2023-10-21T03:20:38.542Z,98063.44
2023-10-21T03:23:06.932Z,98047.63
2023-10-21T03:25:35.688Z,98045.39
2023-10-21T03:28:04.804Z,98037.55
2023-10-21T03:30:33.242Z,98025.71
2023-10-21T03:33:01.904Z,98021.67
2023-10-21T03:35:30.285Z,98021.23
2023-10-21T03:37:58.836Z,98030.13
2023-10-21T03:40:29.097Z,98040.92
2023-10-21T03:42:57.401Z,98048.45
2023-10-21T03:45:25.777Z,98057.14
2023-10-21T03:47:54.664Z,98058.08
2023-10-21T03:50:23.124Z,98063.64
2023-10-21T03:52:51.460Z,98055.34
2023-10-21T03:55:19.953Z,98043.60
2023-10-21T03:57:50.756Z,98042.69
2023-10-21T04:00:19.829Z,98052.75
2023-10-21T04:02:50.592Z,98069.15
2023-10-21T04:05:19.707Z,98075.47
2023-10-21T04:07:48.130Z,98074.48
2023-10-21T04:10:16.802Z,98086.61
2023-10-21T04:12:45.128Z,98082.20
2023-10-21T04:15:13.794Z,98065.05
2023-10-21T04:17:42.393Z,98055.51
2023-10-21T04:20:11.663Z,98058.13
2023-10-21T04:22:41.350Z,98075.48
2023-10-21T04:25:10.487Z,98080.80
2023-10-21T04:27:39.212Z,98091.64
2023-10-21T04:30:09.430Z,98112.81
2023-10-21T04:32:37.974Z,98123.89
2023-10-21T04:35:06.684Z,98114.79
2023-10-21T04:37:35.805Z,98113.98
2023-10-21T04:40:05.693Z,98125.46
2023-10-21T04:42:34.056Z,98139.63
2023-10-21T04:45:03.049Z,98133.77
2023-10-21T04:47:31.472Z,98129.11
2023-10-21T04:49:59.883Z,98132.00
2023-10-21T04:52:28.634Z,98139.91
2023-10-21T04:54:57.041Z,98150.63
2023-10-21T04:57:25.632Z,98157.27
2023-10-21T04:59:54.053Z,98164.20
2023-10-21T05:02:22.563Z,98154.85
2023-10-21T05:04:54.079Z,98142.77
2023-10-21T05:07:22.495Z,98162.89
2023-10-21T05:09:51.310Z,98180.52
2023-10-21T05:12:20.873Z,98180.18
2023-10-21T05:14:49.404Z,98180.48
2023-10-21T05:17:18.497Z,98178.58
2023-10-21T05:19:47.177Z,98184.47
2023-10-21T05:22:15.513Z,98183.52
2023-10-21T05:24:44.109Z,98188.84
2023-10-21T05:27:12.651Z,98196.33
2023-10-21T05:29:40.992Z,98205.36
2023-10-21T05:32:09.743Z,98203.88
2023-10-21T05:34:40.669Z,98203.85
2023-10-21T05:37:09.494Z,98214.70
2023-10-21T05:39:38.187Z,98217.65
2023-10-21T05:42:06.982Z,98213.61
2023-10-21T05:44:48.416Z,98228.81
2023-10-21T05:47:18.092Z,98253.48
2023-10-21T05:49:46.527Z,98267.71
2023-10-21T05:52:16.328Z,98270.04
2023-10-21T05:54:44.813Z,98282.98
2023-10-21T05:57:14.538Z,98289.38
2023-10-21T05:59:42.951Z,98292.13
2023-10-21T06:02:12.935Z,98302.36
2023-10-21T06:04:41.422Z,98307.38
2023-10-21T06:07:09.847Z,98301.23
2023-10-21T06:09:38.452Z,98293.70
2023-10-21T06:12:07.764Z,98286.33
2023-10-21T06:14:36.651Z,98279.14
2023-10-21T06:17:05.139Z,98283.90
2023-10-21T06:19:33.908Z,98292.75
2023-10-21T06:22:03.584Z,98296.83
2023-10-21T06:24:32.039Z,98300.88
2023-10-21T06:27:02.371Z,98303.15
2023-10-21T06:29:31.516Z,98312.70
2023-10-21T06:31:59.903Z,98312.11
2023-10-21T06:34:28.291Z,98312.98
2023-10-21T06:36:56.919Z,98321.86
2023-10-21T06:39:26.621Z,98322.75
2023-10-21T06:41:55.356Z,98325.92
2023-10-21T06:44:24.838Z,98331.91
2023-10-21T06:46:53.157Z,98343.59
2023-10-21T06:49:21.650Z,98351.60
2023-10-21T06:51:50.716Z,98361.34
2023-10-21T06:54:19.195Z,98364.33
2023-10-21T06:56:48.173Z,98369.34
2023-10-21T06:59:16.669Z,98377.41
2023-10-21T07:01:45.086Z,98389.20
2023-10-21T07:04:15.305Z,98397.94
2023-10-21T07:06:43.885Z,98393.80
2023-10-21T07:09:12.879Z,98400.17
2023-10-21T07:11:41.619Z,98400.69
2023-10-21T07:14:10.019Z,98397.73
2023-10-21T07:16:39.729Z,98402.21
2023-10-21T07:19:08.121Z,98399.23
2023-10-21T07:21:37.188Z,98402.80
2023-10-21T07:24:06.522Z,98412.55
2023-10-21T07:26:35.745Z,98419.39
2023-10-21T07:29:04.508Z,98422.33
2023-10-21T07:31:32.884Z,98423.02
2023-10-21T07:34:02.375Z,98431.59
2023-10-21T07:36:30.899Z,98436.15
2023-10-21T07:38:59.340Z,98441.41
2023-10-21T07:41:27.736Z,98442.73
2023-10-21T07:43:56.189Z,98450.11
2023-10-21T07:46:24.553Z,98452.58
2023-10-21T07:48:52.922Z,98455.04
2023-10-21T07:51:21.387Z,98455.06
2023-10-21T07:53:49.787Z,98461.36
2023-10-21T07:56:18.412Z,98470.83
2023-10-21T07:58:46.936Z,98477.86
2023-10-21T08:01:15.569Z,98486.73
2023-10-21T08:03:45.691Z,98499.56
2023-10-21T08:06:16.026Z,98501.20
2023-10-21T08:08:44.566Z,98501.05
2023-10-21T08:11:12.917Z,98501.25
2023-10-21T08:13:41.349Z,98505.16
2023-10-21T08:16:09.910Z,98512.41
2023-10-21T08:18:39.264Z,98508.27
2023-10-21T08:21:11.333Z,98512.73
2023-10-21T08:23:40.345Z,98523.86
2023-10-21T08:26:08.888Z,98530.20
2023-10-21T08:28:37.397Z,98533.48
2023-10-21T08:31:06.162Z,98539.72
2023-10-21T08:33:35.114Z,98545.61
2023-10-21T08:36:04.078Z,98549.64
2023-10-21T08:38:34.798Z,98551.46
2023-10-21T08:41:21.458Z,98552.27
2023-10-21T08:43:57.309Z,98556.73
2023-10-21T08:46:36.652Z,98558.48
2023-10-21T08:49:31.498Z,98563.54
2023-10-21T08:52:11.114Z,98568.91
2023-10-21T08:54:45.162Z,98569.11
2023-10-21T08:57:36.839Z,98575.30
2023-10-21T09:00:33.114Z,98582.98
2023-10-21T09:03:12.104Z,98586.81
2023-10-21T09:06:29.848Z,98591.95
2023-10-21T09:09:30.711Z,98593.65
2023-10-21T09:12:29.185Z,98597.67
2023-10-21T09:15:18.581Z,98596.44
2023-10-21T09:18:12.934Z,98597.05
2023-10-21T09:20:50.397Z,98599.70
2023-10-21T09:23:24.413Z,98599.36
2023-10-21T09:25:57.806Z,98601.16
2023-10-21T09:28:31.896Z,98605.64
2023-10-21T09:31:09.882Z,98604.27
2023-10-21T09:33:57.198Z,98606.65
2023-10-21T09:36:40.292Z,98607.02
2023-10-21T09:39:17.919Z,98607.98
2023-10-21T09:41:52.841Z,98610.77
2023-10-21T09:44:27.155Z,98618.06
2023-10-21T09:47:54.252Z,98619.27
2023-10-21T09:50:26.476Z,98615.59
2023-10-21T09:53:14.020Z,98613.42
2023-10-21T09:55:50.346Z,98616.84
2023-10-21T09:58:20.829Z,98620.54
2023-10-21T10:01:31.702Z,98624.17
2023-10-21T10:04:24.482Z,98625.88
2023-10-21T10:07:14.665Z,98629.71
2023-10-21T10:09:50.719Z,98631.25
2023-10-21T10:13:16.067Z,98634.08
2023-10-21T10:15:58.518Z,98634.17
2023-10-21T10:18:30.873Z,98631.02
2023-10-21T10:21:00.207Z,98636.89
2023-10-21T10:23:30.863Z,98634.60
2023-10-21T10:26:02.621Z,98635.02
2023-10-21T10:28:32.721Z,98635.43
2023-10-21T10:31:01.804Z,98639.05
2023-10-21T10:33:35.407Z,98642.72
2023-10-21T10:36:14.194Z,98642.52
2023-10-21T10:38:46.767Z,98645.52
2023-10-21T10:41:20.100Z,98645.18
2023-10-21T10:44:03.270Z,98651.72
2023-10-21T10:46:32.781Z,98651.52
2023-10-21T10:49:09.093Z,98658.02
2023-10-21T10:51:46.942Z,98666.90
2023-10-21T10:54:21.232Z,98671.42
2023-10-21T10:56:50.406Z,98672.08
2023-10-21T10:59:20.375Z,98675.78
2023-10-21T11:01:59.810Z,98681.04
2023-10-21T11:04:31.328Z,98686.69
2023-10-21T11:06:59.876Z,98689.54
2023-10-21T11:09:32.452Z,98686.44
2023-10-21T11:15:17.830Z,98689.33
2023-10-21T11:17:50.175Z,98688.80
2023-10-21T11:20:20.328Z,98687.63
2023-10-21T11:22:48.735Z,98690.71
2023-10-21T11:42:04.598Z,98699.71
2023-10-21T11:44:33.113Z,98698.61
2023-10-21T12:05:31.518Z,98714.55
2023-10-21T12:08:26.179Z,98724.44
2023-10-21T12:10:57.029Z,98733.92
2023-10-21T12:13:28.362Z,98734.59
2023-10-21T12:16:16.942Z,98741.13
2023-10-21T12:18:48.265Z,98746.82
2023-10-21T12:21:39.319Z,98747.95
2023-10-21T12:24:26.534Z,98748.39
2023-10-21T12:29:32.156Z,98744.99
2023-10-21T12:32:19.160Z,98747.29
2023-10-21T12:35:06.760Z,98748.71
2023-10-21T12:37:50.390Z,98749.50
2023-10-21T12:40:31.291Z,98758.39
2023-10-21T12:43:16.182Z,98761.67
2023-10-21T12:45:50.829Z,98769.98
2023-10-21T12:48:19.906Z,98773.58
2023-10-21T12:50:52.792Z,98779.64
2023-10-21T12:53:21.467Z,98780.30
2023-10-21T12:55:49.905Z,98785.01
2023-10-21T12:58:18.402Z,98798.52
2023-10-21T13:00:46.888Z,98802.98
2023-10-21T13:03:15.418Z,98805.27
2023-10-21T13:05:51.123Z,98802.93
2023-10-21T13:08:20.233Z,98802.59
2023-10-21T13:10:49.288Z,98805.59
2023-10-21T13:13:19.524Z,98809.64
2023-10-21T13:15:48.838Z,98808.61
2023-10-21T13:18:20.188Z,98806.24
2023-10-21T13:20:48.798Z,98800.58
2023-10-21T13:23:17.805Z,98793.42
2023-10-21T13:25:46.196Z,98790.72
2023-10-21T13:28:14.570Z,98791.38
2023-10-21T13:30:44.711Z,98795.57
2023-10-21T13:33:13.270Z,98789.48
2023-10-21T13:35:43.275Z,98789.86
2023-10-21T13:38:12.738Z,98796.77
2023-10-21T13:40:41.234Z,98799.77
2023-10-21T13:43:11.471Z,98792.98
2023-10-21T13:45:39.847Z,98794.73
2023-10-21T13:48:12.608Z,98800.00
2023-10-21T13:50:42.283Z,98811.81
2023-10-21T13:53:13.390Z,98823.14
2023-10-21T13:55:44.326Z,98833.69
2023-10-21T13:58:16.269Z,98837.11
2023-10-21T14:00:45.325Z,98837.45
2023-10-21T14:03:22.135Z,98841.41
2023-10-21T14:05:53.274Z,98836.67
2023-10-21T14:08:28.691Z,98838.86
2023-10-21T14:11:06.965Z,98836.45
2023-10-21T14:13:35.640Z,98839.05
2023-10-21T14:16:07.558Z,98840.16
2023-10-21T14:18:36.570Z,98840.80
2023-10-21T14:21:09.143Z,98839.72
2023-10-21T14:23:37.942Z,98840.48
2023-10-21T14:26:08.941Z,98840.94
2023-10-21T14:28:41.896Z,98843.95
2023-10-21T14:31:11.241Z,98847.11
2023-10-21T14:42:42.933Z,98861.45
2023-10-21T14:51:17.341Z,98882.33
2023-10-21T14:53:47.597Z,98876.34
2023-10-21T14:56:25.471Z,98872.62
2023-10-21T14:58:59.266Z,98874.36
2023-10-21T15:01:28.485Z,98879.05
2023-10-21T15:03:57.724Z,98874.21
2023-10-21T15:06:31.916Z,98875.17
2023-10-21T15:09:00.423Z,98880.20
2023-10-21T15:11:29.876Z,98877.42
2023-10-21T15:14:00.465Z,98876.96
2023-10-21T15:16:29.350Z,98877.19
2023-10-21T15:18:57.770Z,98877.86
2023-10-21T15:21:26.251Z,98877.84
2023-10-21T15:23:54.623Z,98881.00
2023-10-21T15:26:23.049Z,98881.85
2023-10-21T15:28:51.386Z,98887.42
2023-10-21T15:31:19.809Z,98895.78
2023-10-21T15:33:51.027Z,98897.15
2023-10-21T15:36:19.500Z,98893.95
2023-10-21T15:38:53.594Z,98892.75
2023-10-21T15:41:28.985Z,98886.02
2023-10-21T15:44:00.430Z,98883.91
2023-10-21T15:46:28.904Z,98883.85
2023-10-21T15:48:57.725Z,98885.57
2023-10-21T15:51:26.380Z,98899.62
2023-10-21T15:53:54.888Z,98915.45
2023-10-21T15:56:23.234Z,98922.28
2023-10-21T15:58:51.627Z,98926.07
2023-10-21T16:01:20.278Z,98923.91
2023-10-21T16:03:49.013Z,98927.00
2023-10-21T16:06:18.199Z,98931.89
2023-10-21T16:08:46.854Z,98937.28
2023-10-21T16:11:15.426Z,98938.16
2023-10-21T16:13:55.542Z,98934.84
2023-10-21T16:16:25.070Z,98927.35
2023-10-21T16:18:53.900Z,98937.25
2023-10-21T16:21:22.845Z,98945.77
2023-10-21T16:24:05.199Z,98955.62
2023-10-21T16:26:33.736Z,98962.51
2023-10-21T16:29:02.095Z,98972.02
2023-10-21T16:31:30.619Z,98981.98
2023-10-21T16:33:59.332Z,98988.48
2023-10-21T16:36:27.857Z,98995.34
2023-10-21T16:38:56.730Z,98995.08
2023-10-21T16:41:25.403Z,98991.08
2023-10-21T16:43:54.559Z,98988.60
2023-10-21T16:46:24.637Z,98986.61
2023-10-21T16:48:53.107Z,98991.59
2023-10-21T16:51:21.871Z,98992.98
2023-10-21T16:53:50.327Z,98997.60
2023-10-21T16:56:19.010Z,98998.92
2023-10-21T16:58:47.733Z,99000.89
2023-10-21T17:01:18.609Z,98999.85
2023-10-21T17:03:47.222Z,99002.12
2023-10-21T17:06:35.944Z,99006.77
2023-10-21T17:09:14.355Z,99005.59
2023-10-21T17:14:41.423Z,99008.09
2023-10-21T17:18:19.528Z,99009.42
2023-10-21T17:24:26.126Z,99021.52
2023-10-21T17:26:56.105Z,99023.36
2023-10-21T17:29:24.555Z,99024.60
2023-10-21T17:31:53.087Z,99028.88
2023-10-21T17:34:24.259Z,99040.53
2023-10-21T17:36:52.936Z,99042.88
2023-10-21T17:39:27.625Z,99044.52
2023-10-21T17:48:57.590Z,99043.84
2023-10-21T17:51:26.139Z,99041.49
2023-10-21T17:54:31.844Z,99047.38
2023-10-21T17:57:30.840Z,99045.93
2023-10-21T18:06:36.515Z,99057.85
2023-10-21T18:10:13.088Z,99056.85
2023-10-21T18:12:41.573Z,99059.88
2023-10-21T18:15:11.963Z,99058.35
2023-10-21T18:20:56.224Z,99059.88
2023-10-21T18:23:24.811Z,99065.00
2023-10-21T18:29:58.246Z,99072.64
2023-10-21T18:32:26.846Z,99080.61
2023-10-21T18:34:55.228Z,99076.03
2023-10-21T18:37:23.595Z,99075.73
2023-10-21T18:39:52.060Z,99079.62
2023-10-21T18:42:21.169Z,99082.85
2023-10-21T18:44:49.903Z,99091.89
2023-10-21T18:47:18.269Z,99099.12
2023-10-21T18:49:46.757Z,99100.66
2023-10-21T18:52:17.549Z,99103.95
2023-10-21T18:54:51.664Z,99098.25
2023-10-21T18:57:20.151Z,99102.43
2023-10-21T18:59:49.024Z,99105.38
2023-10-21T19:02:19.970Z,99101.34
2023-10-21T19:04:48.713Z,99106.33
2023-10-21T19:07:17.248Z,99105.71
2023-10-21T19:09:45.659Z,99107.34
2023-10-21T19:12:14.185Z,99108.66
2023-10-21T19:14:42.669Z,99108.39
2023-10-21T19:17:11.597Z,99107.19
2023-10-21T19:19:40.021Z,99110.63
2023-10-21T19:22:08.681Z,99115.23
2023-10-21T19:24:37.381Z,99117.52
2023-10-21T19:27:06.022Z,99114.70
2023-10-21T19:29:36.691Z,99118.27
2023-10-21T19:32:06.213Z,99122.77
2023-10-21T19:34:34.978Z,99119.73
2023-10-21T19:37:05.428Z,99116.97
2023-10-21T19:39:34.267Z,99115.71
2023-10-21T19:42:05.268Z,99110.67
2023-10-21T19:44:34.106Z,99108.33
2023-10-21T19:47:05.454Z,99103.31
2023-10-21T19:49:35.134Z,99102.69
2023-10-21T19:52:04.478Z,99102.30
2023-10-21T19:54:33.662Z,99099.59
2023-10-21T19:57:02.703Z,99099.59
2023-10-21T19:59:31.245Z,99097.95
2023-10-21T20:01:59.996Z,99103.42
2023-10-21T20:04:28.817Z,99099.96
2023-10-21T20:06:58.753Z,99098.98
2023-10-21T20:09:27.772Z,99092.09
2023-10-21T20:11:56.448Z,99086.64
2023-10-21T20:14:25.682Z,99086.16
2023-10-21T20:16:54.644Z,99083.04
2023-10-21T20:19:23.545Z,99082.14
2023-10-21T20:21:52.332Z,99080.85
2023-10-21T20:24:21.016Z,99086.79
2023-10-21T20:26:59.389Z,99086.52
2023-10-21T20:29:27.770Z,99086.81
2023-10-21T20:31:56.417Z,99084.22
2023-10-21T20:34:25.902Z,99083.06
2023-10-21T20:36:54.362Z,99090.34
2023-10-21T20:39:22.912Z,99091.29
2023-10-21T20:41:52.220Z,99089.59
2023-10-21T20:44:20.662Z,99088.91
2023-10-21T20:46:49.096Z,99087.39
2023-10-21T20:49:17.539Z,99090.31
2023-10-21T20:51:48.011Z,99084.69
2023-10-21T20:54:16.726Z,99083.70
2023-10-21T20:56:45.365Z,99082.70
2023-10-21T20:59:13.867Z,99085.86
2023-10-21T21:01:42.711Z,99084.86
2023-10-21T21:04:11.496Z,99081.09
2023-10-21T21:06:40.004Z,99078.73
2023-10-21T21:09:09.145Z,99074.18
2023-10-21T21:11:37.821Z,99077.04
2023-10-21T21:14:06.564Z,99073.10
2023-10-21T21:16:36.389Z,99066.23
2023-10-21T21:19:06.299Z,99065.27
2023-10-21T21:21:35.033Z,99070.11
2023-10-21T21:24:06.543Z,99070.39
2023-10-21T21:26:35.866Z,99075.55
2023-10-21T21:29:05.466Z,99075.36
2023-10-21T21:31:33.980Z,99066.17
2023-10-21T21:34:02.392Z,99065.71
2023-10-21T21:36:32.961Z,99060.52
2023-10-21T21:39:01.532Z,99059.33
2023-10-21T21:41:29.872Z,99054.48
2023-10-21T21:43:58.776Z,99050.45
2023-10-21T21:46:27.150Z,99045.38
2023-10-21T21:48:55.709Z,99042.06
2023-10-21T21:51:24.703Z,99036.39
2023-10-21T21:53:53.123Z,99030.48
2023-10-21T21:56:21.814Z,99030.06
2023-10-21T21:58:50.565Z,99029.05
2023-10-21T22:01:27.510Z,99028.55
2023-10-21T22:03:57.459Z,99030.44
2023-10-21T22:06:26.821Z,99030.73
2023-10-21T22:08:56.016Z,99031.70
2023-10-21T22:11:26.466Z,99031.23
2023-10-21T22:13:55.005Z,99033.05
2023-10-21T22:16:23.941Z,99032.04
2023-10-21T22:18:52.716Z,99038.89
2023-10-21T22:21:21.362Z,99040.56
2023-10-21T22:24:01.087Z,99043.92
2023-10-21T22:26:34.540Z,99048.79
2023-10-21T22:29:04.633Z,99044.42
2023-10-21T22:31:33.942Z,99044.05
2023-10-21T22:34:02.317Z,99039.11
2023-10-21T22:36:30.839Z,99041.98
2023-10-21T22:38:59.439Z,99041.34
2023-10-21T22:41:28.635Z,99042.61
2023-10-21T22:43:57.285Z,99038.39
2023-10-21T22:46:25.790Z,99035.48
2023-10-21T22:48:54.392Z,99031.02
2023-10-21T22:51:23.038Z,99025.23
2023-10-21T22:53:52.843Z,99021.39
2023-10-21T22:56:21.349Z,99021.16
2023-10-21T22:58:50.256Z,99018.21
2023-10-21T23:01:18.674Z,99017.22
2023-10-21T23:03:47.189Z,99018.17
2023-10-21T23:06:15.711Z,99022.45
2023-10-21T23:08:44.713Z,99025.45
2023-10-21T23:11:15.694Z,99026.48
2023-10-21T23:13:44.071Z,99032.67
2023-10-21T23:16:19.524Z,99030.84
2023-10-21T23:18:49.204Z,99036.11
2023-10-21T23:21:18.582Z,99038.13
2023-10-21T23:23:48.333Z,99036.88
2023-10-21T23:26:17.293Z,99033.05
2023-10-21T23:28:45.639Z,99030.45
2023-10-21T23:31:14.872Z,99028.44
2023-10-21T23:33:43.562Z,99028.71
2023-10-21T23:36:12.243Z,99032.11
2023-10-21T23:38:41.758Z,99035.27
2023-10-21T23:41:10.187Z,99034.67
2023-10-21T23:43:39.239Z,99036.66
2023-10-21T23:46:08.245Z,99037.52
2023-10-21T23:48:36.822Z,99042.55
2023-10-21T23:51:05.451Z,99055.51
2023-10-21T23:53:35.079Z,99062.79
2023-10-21T23:56:03.990Z,99050.95
2023-10-21T23:58:32.428Z,99042.16
